Main page
METAR-TAF:

METAR-TAF

Airports :

Lamoni Municipal Airport

Lamoni, Iowa, United States

latitude: 40-37-50N, longitude: 093-54-03W, elevation: 1128 ft

Current weather observation

The report was made 24 minutes ago, at 11:53 UTC
Wind 3 mph from the South/Southeast
Temperature 57°F
Humidity 77%
Pressure 29.90 in. Hg
Visibility: 10 miles
Clear sky

METAR: KLWD 231153Z AUTO 15003KT 10SM CLR 14/10 A2990 RMK AO2 SLP121 T01390100 10156 20122 58002

Time: 07:17 (12:17 UTC)


TAF: missing

Weather observations and forecasts of more than 4000 airports (METAR and TAF reports).

The available stations are represented by yellow and red dots on the map.

Hover mouse over dot to see the name of the station.

Then click to see weather observations and forecasts.

To change the map : click on the green buttons with a black cross to zoom in, on the green button with a dash to zoom out, or on the green arrows for adjacent maps.


METAR-TAF: